createdAt,value
2023-04-14T18:00:29.429Z,44.25
2023-04-14T18:02:59.030Z,44.19
2023-04-14T18:05:28.314Z,46.63
2023-04-14T18:07:57.844Z,45.59
2023-04-14T18:10:27.118Z,45.79
2023-04-14T18:12:56.578Z,45.66
2023-04-14T18:15:25.861Z,45.95
2023-04-14T18:17:56.917Z,46.38
2023-04-14T18:20:26.602Z,45.36
2023-04-14T18:22:57.805Z,46.83
2023-04-14T18:25:27.052Z,46.79
2023-04-14T18:30:30.094Z,45.29
2023-04-14T18:33:02.189Z,45.87
2023-04-14T18:35:39.921Z,46.70
2023-04-14T18:38:09.454Z,46.38
2023-04-14T18:40:39.362Z,46.00
2023-04-14T18:43:08.820Z,45.43
2023-04-14T18:45:38.132Z,44.60
2023-04-14T18:48:09.486Z,46.55
2023-04-14T18:50:38.599Z,46.54
2023-04-14T18:53:09.482Z,45.63
2023-04-14T18:55:45.431Z,46.96
2023-04-14T18:58:17.214Z,47.13
2023-04-14T19:00:46.837Z,46.16
2023-04-14T19:03:18.564Z,46.38
2023-04-14T19:05:51.190Z,46.35
2023-04-14T19:08:24.869Z,46.54
2023-04-14T19:10:54.279Z,46.47
2023-04-14T19:13:24.486Z,46.67
2023-04-14T19:15:54.032Z,46.93
2023-04-14T19:18:27.973Z,46.73
2023-04-14T19:20:57.899Z,47.25
2023-04-14T19:23:27.501Z,47.67
2023-04-14T19:25:57.595Z,47.10
2023-04-14T19:28:28.065Z,49.12
2023-04-14T19:31:01.432Z,49.01
2023-04-14T19:33:32.624Z,48.43
2023-04-14T19:36:02.869Z,47.14
2023-04-14T19:38:32.581Z,46.78
2023-04-14T19:41:02.397Z,47.41
2023-04-14T19:43:31.984Z,47.52
2023-04-14T19:46:04.710Z,47.57
2023-04-14T19:48:35.790Z,46.91
2023-04-14T19:51:04.906Z,46.48
2023-04-14T19:53:34.608Z,47.59
2023-04-14T19:56:05.756Z,47.08
2023-04-14T19:58:36.470Z,46.86
2023-04-14T20:01:06.131Z,47.47
2023-04-14T20:03:38.684Z,47.38
2023-04-14T20:06:28.685Z,46.96
2023-04-14T20:08:58.266Z,48.09
2023-04-14T20:11:28.234Z,47.01
2023-04-14T20:13:57.705Z,46.96
2023-04-14T20:16:27.558Z,47.15
2023-04-14T20:18:58.667Z,47.56
2023-04-14T20:21:28.242Z,48.10
2023-04-14T20:23:57.686Z,47.26
2023-04-14T20:26:28.702Z,46.94
2023-04-14T20:28:58.282Z,46.93
2023-04-14T20:31:27.417Z,47.58
2023-04-14T20:33:58.383Z,47.82
2023-04-14T20:36:30.071Z,47.21
2023-04-14T20:39:00.110Z,47.47
2023-04-14T20:41:29.674Z,47.76
2023-04-14T20:43:59.130Z,49.21
2023-04-14T20:46:28.897Z,48.72
2023-04-14T20:49:01.163Z,48.62
2023-04-14T20:51:32.317Z,48.37
2023-04-14T20:54:01.962Z,48.70
2023-04-14T20:56:31.945Z,49.05
2023-04-14T20:59:02.777Z,49.29
2023-04-14T21:01:32.560Z,49.02
2023-04-14T21:04:03.399Z,49.36
2023-04-14T21:06:33.166Z,49.18
2023-04-14T21:09:02.806Z,49.18
2023-04-14T21:11:32.044Z,48.81
2023-04-14T21:15:30.321Z,49.12
2023-04-14T21:16:50.874Z,50.30
2023-04-14T21:19:22.442Z,50.30
2023-04-14T21:21:51.892Z,50.27
2023-04-14T21:24:21.298Z,50.53
2023-04-14T21:26:50.715Z,50.05
2023-04-14T21:29:20.239Z,50.60
2023-04-14T21:31:49.487Z,51.20
2023-04-14T21:34:20.328Z,50.59
2023-04-14T21:36:49.478Z,50.11
2023-04-14T21:39:20.283Z,50.11
2023-04-14T21:41:49.576Z,50.54
2023-04-14T21:44:18.984Z,51.17
2023-04-14T21:46:48.091Z,51.84
2023-04-14T21:49:18.082Z,53.02
2023-04-14T21:51:48.524Z,53.04
2023-04-14T21:54:18.108Z,51.90
2023-04-14T21:56:47.409Z,51.36
2023-04-14T21:59:17.174Z,52.05
2023-04-14T22:01:46.386Z,51.80
2023-04-14T22:04:25.111Z,52.30
2023-04-14T22:06:59.636Z,51.74
2023-04-14T22:09:29.151Z,52.33
2023-04-14T22:11:58.807Z,51.89
2023-04-14T22:14:28.160Z,51.31
2023-04-14T22:16:57.214Z,51.45
2023-04-14T22:19:28.615Z,52.24
2023-04-14T22:21:59.988Z,51.30
2023-04-14T22:24:29.687Z,51.47
2023-04-14T22:26:58.844Z,52.04
2023-04-14T22:29:28.457Z,51.62
2023-04-14T22:31:57.580Z,51.80
2023-04-14T22:34:26.870Z,53.27
2023-04-14T22:36:58.031Z,52.81
2023-04-14T22:39:29.205Z,52.11
2023-04-14T22:41:58.250Z,52.06
2023-04-14T22:44:27.665Z,52.36
2023-04-14T22:46:56.753Z,52.89
2023-04-14T22:49:26.228Z,53.06
2023-04-14T22:51:55.333Z,53.35
2023-04-14T22:54:24.781Z,53.43
2023-04-14T22:56:55.422Z,52.61
2023-04-14T22:59:26.658Z,52.37
2023-04-14T23:01:56.028Z,52.74
2023-04-14T23:04:26.772Z,53.54
2023-04-14T23:06:56.279Z,52.14
2023-04-14T23:09:26.898Z,52.08
2023-04-14T23:11:57.823Z,51.89
2023-04-14T23:14:27.338Z,51.58
2023-04-14T23:16:56.913Z,52.45
2023-04-14T23:19:26.570Z,51.88
2023-04-14T23:21:55.643Z,51.95
2023-04-14T23:24:25.035Z,51.34
2023-04-14T23:26:54.193Z,50.96
2023-04-14T23:29:25.106Z,50.75
2023-04-14T23:31:54.221Z,51.09
2023-04-14T23:34:23.688Z,50.61
2023-04-14T23:36:52.904Z,51.36
2023-04-14T23:39:22.486Z,50.63
2023-04-14T23:41:51.703Z,49.88
2023-04-14T23:44:21.206Z,51.59
2023-04-14T23:46:52.555Z,50.13
2023-04-14T23:49:24.240Z,50.25
2023-04-14T23:52:01.603Z,50.33
2023-04-14T23:54:31.903Z,49.30
2023-04-14T23:57:01.204Z,50.93
2023-04-14T23:59:30.606Z,50.18
